sensor_id;sensor_type;location;lat;lon;timestamp;temperature;humidity
5834;DHT22;2943;48.012;10.968;2023-05-15T00:01:58;10.10;99.90
5834;DHT22;2943;48.012;10.968;2023-05-15T00:04:26;10.10;99.90
5834;DHT22;2943;48.012;10.968;2023-05-15T00:06:53;10.10;99.90
5834;DHT22;2943;48.012;10.968;2023-05-15T00:09:21;10.00;99.90
5834;DHT22;2943;48.012;10.968;2023-05-15T00:11:50;10.00;99.90
5834;DHT22;2943;48.012;10.968;2023-05-15T00:14:18;9.90;99.90
5834;DHT22;2943;48.012;10.968;2023-05-15T00:16:44;9.90;99.90
5834;DHT22;2943;48.012;10.968;2023-05-15T00:19:12;9.90;99.90
5834;DHT22;2943;48.012;10.968;2023-05-15T00:21:40;9.90;99.90
5834;DHT22;2943;48.012;10.968;2023-05-15T00:24:07;9.90;99.90
5834;DHT22;2943;48.012;10.968;2023-05-15T00:26:35;9.90;99.90
5834;DHT22;2943;48.012;10.968;2023-05-15T00:29:02;9.90;99.90
5834;DHT22;2943;48.012;10.968;2023-05-15T00:31:29;9.90;99.90
5834;DHT22;2943;48.012;10.968;2023-05-15T00:33:58;9.90;99.90
5834;DHT22;2943;48.012;10.968;2023-05-15T00:36:25;10.00;99.90
5834;DHT22;2943;48.012;10.968;2023-05-15T00:38:52;9.90;99.90
5834;DHT22;2943;48.012;10.968;2023-05-15T00:41:19;9.90;99.90
5834;DHT22;2943;48.012;10.968;2023-05-15T00:43:49;9.90;99.90
5834;DHT22;2943;48.012;10.968;2023-05-15T00:46:18;9.80;99.90
5834;DHT22;2943;48.012;10.968;2023-05-15T00:48:46;9.90;99.90
5834;DHT22;2943;48.012;10.968;2023-05-15T00:51:14;10.00;99.90
5834;DHT22;2943;48.012;10.968;2023-05-15T00:53:42;10.10;99.90
5834;DHT22;2943;48.012;10.968;2023-05-15T00:56:10;10.10;99.90
5834;DHT22;2943;48.012;10.968;2023-05-15T00:58:38;10.10;99.90
5834;DHT22;2943;48.012;10.968;2023-05-15T01:01:06;10.20;99.90
5834;DHT22;2943;48.012;10.968;2023-05-15T01:03:33;10.20;99.90
5834;DHT22;2943;48.012;10.968;2023-05-15T01:06:00;10.20;99.90
5834;DHT22;2943;48.012;10.968;2023-05-15T01:08:34;10.20;99.90
5834;DHT22;2943;48.012;10.968;2023-05-15T01:11:06;10.20;99.90
5834;DHT22;2943;48.012;10.968;2023-05-15T01:13:33;10.20;99.90
5834;DHT22;2943;48.012;10.968;2023-05-15T01:16:00;10.20;99.90
5834;DHT22;2943;48.012;10.968;2023-05-15T01:18:29;10.20;99.90
5834;DHT22;2943;48.012;10.968;2023-05-15T01:21:25;10.20;99.90
5834;DHT22;2943;48.012;10.968;2023-05-15T01:24:08;10.20;99.90
5834;DHT22;2943;48.012;10.968;2023-05-15T01:27:00;10.10;99.90
5834;DHT22;2943;48.012;10.968;2023-05-15T01:29:31;10.10;99.90
5834;DHT22;2943;48.012;10.968;2023-05-15T01:32:02;10.10;99.90
5834;DHT22;2943;48.012;10.968;2023-05-15T01:34:35;10.10;99.90
5834;DHT22;2943;48.012;10.968;2023-05-15T01:37:05;10.10;99.90
5834;DHT22;2943;48.012;10.968;2023-05-15T01:39:34;10.10;99.90
5834;DHT22;2943;48.012;10.968;2023-05-15T01:42:07;10.10;99.90
5834;DHT22;2943;48.012;10.968;2023-05-15T01:44:35;10.10;99.90
5834;DHT22;2943;48.012;10.968;2023-05-15T01:47:09;10.20;99.90
5834;DHT22;2943;48.012;10.968;2023-05-15T01:49:37;10.20;99.90
5834;DHT22;2943;48.012;10.968;2023-05-15T01:52:07;10.20;99.90
5834;DHT22;2943;48.012;10.968;2023-05-15T01:54:36;10.10;99.90
5834;DHT22;2943;48.012;10.968;2023-05-15T01:57:06;10.10;99.90
5834;DHT22;2943;48.012;10.968;2023-05-15T01:59:35;10.10;99.90
5834;DHT22;2943;48.012;10.968;2023-05-15T02:02:03;10.00;99.90
5834;DHT22;2943;48.012;10.968;2023-05-15T02:04:32;10.00;99.90
5834;DHT22;2943;48.012;10.968;2023-05-15T02:07:00;10.00;99.90
5834;DHT22;2943;48.012;10.968;2023-05-15T02:09:27;9.90;99.90
5834;DHT22;2943;48.012;10.968;2023-05-15T02:11:55;9.90;99.90
5834;DHT22;2943;48.012;10.968;2023-05-15T02:14:24;9.90;99.90
5834;DHT22;2943;48.012;10.968;2023-05-15T02:16:51;9.90;99.90
5834;DHT22;2943;48.012;10.968;2023-05-15T02:19:18;9.80;99.90
5834;DHT22;2943;48.012;10.968;2023-05-15T02:21:45;9.80;99.90
5834;DHT22;2943;48.012;10.968;2023-05-15T02:24:12;9.80;99.90
5834;DHT22;2943;48.012;10.968;2023-05-15T02:26:44;9.80;99.90
5834;DHT22;2943;48.012;10.968;2023-05-15T02:29:17;9.70;99.90
5834;DHT22;2943;48.012;10.968;2023-05-15T02:31:53;9.70;99.90
5834;DHT22;2943;48.012;10.968;2023-05-15T02:34:26;9.70;99.90
5834;DHT22;2943;48.012;10.968;2023-05-15T02:36:59;9.70;99.90
5834;DHT22;2943;48.012;10.968;2023-05-15T02:39:26;9.70;99.90
5834;DHT22;2943;48.012;10.968;2023-05-15T02:41:54;9.70;99.90
5834;DHT22;2943;48.012;10.968;2023-05-15T02:44:22;9.70;99.90
5834;DHT22;2943;48.012;10.968;2023-05-15T02:46:51;9.70;99.90
5834;DHT22;2943;48.012;10.968;2023-05-15T02:49:19;9.60;99.90
5834;DHT22;2943;48.012;10.968;2023-05-15T02:51:47;9.60;99.90
5834;DHT22;2943;48.012;10.968;2023-05-15T02:54:14;9.60;99.90
5834;DHT22;2943;48.012;10.968;2023-05-15T02:56:41;9.60;99.90
5834;DHT22;2943;48.012;10.968;2023-05-15T02:59:10;9.60;99.90
5834;DHT22;2943;48.012;10.968;2023-05-15T03:01:37;9.60;99.90
5834;DHT22;2943;48.012;10.968;2023-05-15T03:04:06;9.70;99.90
5834;DHT22;2943;48.012;10.968;2023-05-15T03:06:33;9.70;99.90
5834;DHT22;2943;48.012;10.968;2023-05-15T03:09:00;9.60;99.90
5834;DHT22;2943;48.012;10.968;2023-05-15T03:11:26;9.60;99.90
5834;DHT22;2943;48.012;10.968;2023-05-15T03:13:53;9.60;99.90
5834;DHT22;2943;48.012;10.968;2023-05-15T03:16:20;9.60;99.90
5834;DHT22;2943;48.012;10.968;2023-05-15T03:18:48;9.60;99.90
5834;DHT22;2943;48.012;10.968;2023-05-15T03:21:17;9.60;99.90
5834;DHT22;2943;48.012;10.968;2023-05-15T03:23:44;9.60;99.90
5834;DHT22;2943;48.012;10.968;2023-05-15T03:26:11;9.60;99.90
5834;DHT22;2943;48.012;10.968;2023-05-15T03:28:38;9.60;99.90
5834;DHT22;2943;48.012;10.968;2023-05-15T03:31:05;9.60;99.90
5834;DHT22;2943;48.012;10.968;2023-05-15T03:33:33;9.60;99.90
5834;DHT22;2943;48.012;10.968;2023-05-15T03:35:59;9.50;99.90
5834;DHT22;2943;48.012;10.968;2023-05-15T03:38:28;9.50;99.90
5834;DHT22;2943;48.012;10.968;2023-05-15T03:40:55;9.50;99.90
5834;DHT22;2943;48.012;10.968;2023-05-15T03:43:22;9.50;99.90
5834;DHT22;2943;48.012;10.968;2023-05-15T03:45:49;9.50;99.90
5834;DHT22;2943;48.012;10.968;2023-05-15T03:48:17;9.50;99.90
5834;DHT22;2943;48.012;10.968;2023-05-15T03:50:44;9.60;99.90
5834;DHT22;2943;48.012;10.968;2023-05-15T03:53:11;9.60;99.90
5834;DHT22;2943;48.012;10.968;2023-05-15T03:55:39;9.50;99.90
5834;DHT22;2943;48.012;10.968;2023-05-15T03:58:06;9.60;99.90
5834;DHT22;2943;48.012;10.968;2023-05-15T04:00:33;9.60;99.90
5834;DHT22;2943;48.012;10.968;2023-05-15T04:03:00;9.60;99.90
5834;DHT22;2943;48.012;10.968;2023-05-15T04:05:27;9.60;99.90
5834;DHT22;2943;48.012;10.968;2023-05-15T04:07:54;9.70;99.90
5834;DHT22;2943;48.012;10.968;2023-05-15T04:10:21;9.70;99.90
5834;DHT22;2943;48.012;10.968;2023-05-15T04:12:49;9.70;99.90
5834;DHT22;2943;48.012;10.968;2023-05-15T04:15:18;9.70;99.90
5834;DHT22;2943;48.012;10.968;2023-05-15T04:17:47;9.70;99.90
5834;DHT22;2943;48.012;10.968;2023-05-15T04:20:15;9.70;99.90
5834;DHT22;2943;48.012;10.968;2023-05-15T04:22:43;9.70;99.90
5834;DHT22;2943;48.012;10.968;2023-05-15T04:25:11;9.70;99.90
5834;DHT22;2943;48.012;10.968;2023-05-15T04:27:39;9.70;99.90
5834;DHT22;2943;48.012;10.968;2023-05-15T04:30:09;9.70;99.90
5834;DHT22;2943;48.012;10.968;2023-05-15T04:32:37;9.70;99.90
5834;DHT22;2943;48.012;10.968;2023-05-15T04:35:05;9.70;99.90
5834;DHT22;2943;48.012;10.968;2023-05-15T04:37:35;9.70;99.90
5834;DHT22;2943;48.012;10.968;2023-05-15T04:40:02;9.70;99.90
5834;DHT22;2943;48.012;10.968;2023-05-15T04:42:30;9.70;99.90
5834;DHT22;2943;48.012;10.968;2023-05-15T04:44:57;9.70;99.90
5834;DHT22;2943;48.012;10.968;2023-05-15T04:47:25;9.70;99.90
5834;DHT22;2943;48.012;10.968;2023-05-15T04:49:52;9.70;99.90
5834;DHT22;2943;48.012;10.968;2023-05-15T04:52:19;9.70;99.90
5834;DHT22;2943;48.012;10.968;2023-05-15T04:54:46;9.70;99.90
5834;DHT22;2943;48.012;10.968;2023-05-15T04:57:15;9.70;99.90
5834;DHT22;2943;48.012;10.968;2023-05-15T04:59:42;9.80;99.90
5834;DHT22;2943;48.012;10.968;2023-05-15T05:02:11;9.80;99.90
5834;DHT22;2943;48.012;10.968;2023-05-15T05:04:42;9.80;99.90
5834;DHT22;2943;48.012;10.968;2023-05-15T05:07:11;9.80;99.90
5834;DHT22;2943;48.012;10.968;2023-05-15T05:09:39;9.90;99.90
5834;DHT22;2943;48.012;10.968;2023-05-15T05:12:06;9.90;99.90
5834;DHT22;2943;48.012;10.968;2023-05-15T05:14:34;9.90;99.90
5834;DHT22;2943;48.012;10.968;2023-05-15T05:17:01;10.00;99.90
5834;DHT22;2943;48.012;10.968;2023-05-15T05:19:28;10.00;99.90
5834;DHT22;2943;48.012;10.968;2023-05-15T05:22:02;10.00;99.90
5834;DHT22;2943;48.012;10.968;2023-05-15T05:24:29;10.00;99.90
5834;DHT22;2943;48.012;10.968;2023-05-15T05:26:57;10.00;99.90
5834;DHT22;2943;48.012;10.968;2023-05-15T05:29:24;10.00;99.90
5834;DHT22;2943;48.012;10.968;2023-05-15T05:31:50;10.10;99.90
5834;DHT22;2943;48.012;10.968;2023-05-15T05:34:18;10.20;99.90
5834;DHT22;2943;48.012;10.968;2023-05-15T05:36:45;10.20;99.90
5834;DHT22;2943;48.012;10.968;2023-05-15T05:39:14;10.20;99.90
5834;DHT22;2943;48.012;10.968;2023-05-15T05:41:44;10.30;99.90
5834;DHT22;2943;48.012;10.968;2023-05-15T05:44:11;10.30;99.90
5834;DHT22;2943;48.012;10.968;2023-05-15T05:46:38;10.40;99.90
5834;DHT22;2943;48.012;10.968;2023-05-15T05:49:05;10.40;99.90
5834;DHT22;2943;48.012;10.968;2023-05-15T05:51:34;10.50;99.90
5834;DHT22;2943;48.012;10.968;2023-05-15T05:54:02;10.60;99.90
5834;DHT22;2943;48.012;10.968;2023-05-15T05:56:32;10.70;99.90
5834;DHT22;2943;48.012;10.968;2023-05-15T05:59:01;10.80;99.90
5834;DHT22;2943;48.012;10.968;2023-05-15T06:01:31;10.90;99.90
5834;DHT22;2943;48.012;10.968;2023-05-15T06:04:00;11.00;99.90
5834;DHT22;2943;48.012;10.968;2023-05-15T06:06:27;11.00;99.90
5834;DHT22;2943;48.012;10.968;2023-05-15T06:08:55;11.10;99.90
5834;DHT22;2943;48.012;10.968;2023-05-15T06:11:22;11.20;99.90
5834;DHT22;2943;48.012;10.968;2023-05-15T06:13:50;11.20;99.90
5834;DHT22;2943;48.012;10.968;2023-05-15T06:16:17;11.20;99.90
5834;DHT22;2943;48.012;10.968;2023-05-15T06:18:44;11.30;99.90
5834;DHT22;2943;48.012;10.968;2023-05-15T06:21:11;11.30;99.90
5834;DHT22;2943;48.012;10.968;2023-05-15T06:23:38;11.40;99.90
5834;DHT22;2943;48.012;10.968;2023-05-15T06:26:06;11.30;99.90
5834;DHT22;2943;48.012;10.968;2023-05-15T06:28:33;11.30;99.90
5834;DHT22;2943;48.012;10.968;2023-05-15T06:31:03;11.30;99.90
5834;DHT22;2943;48.012;10.968;2023-05-15T06:33:29;11.30;99.90
5834;DHT22;2943;48.012;10.968;2023-05-15T06:35:56;11.30;99.90
5834;DHT22;2943;48.012;10.968;2023-05-15T06:38:23;11.30;99.90
5834;DHT22;2943;48.012;10.968;2023-05-15T06:40:50;11.30;99.90
5834;DHT22;2943;48.012;10.968;2023-05-15T06:43:16;11.20;99.90
5834;DHT22;2943;48.012;10.968;2023-05-15T06:45:43;11.20;99.90
5834;DHT22;2943;48.012;10.968;2023-05-15T06:48:11;11.20;99.90
5834;DHT22;2943;48.012;10.968;2023-05-15T06:50:38;11.20;99.90
5834;DHT22;2943;48.012;10.968;2023-05-15T06:53:05;11.10;99.90
5834;DHT22;2943;48.012;10.968;2023-05-15T06:55:32;11.10;99.90
5834;DHT22;2943;48.012;10.968;2023-05-15T06:58:00;11.00;99.90
5834;DHT22;2943;48.012;10.968;2023-05-15T07:00:27;11.00;99.90
5834;DHT22;2943;48.012;10.968;2023-05-15T07:02:54;11.00;99.90
5834;DHT22;2943;48.012;10.968;2023-05-15T07:05:23;11.00;99.90
5834;DHT22;2943;48.012;10.968;2023-05-15T07:07:50;11.00;99.90
5834;DHT22;2943;48.012;10.968;2023-05-15T07:10:17;10.90;99.90
5834;DHT22;2943;48.012;10.968;2023-05-15T07:12:43;10.90;99.90
5834;DHT22;2943;48.012;10.968;2023-05-15T07:15:10;10.90;99.90
5834;DHT22;2943;48.012;10.968;2023-05-15T07:17:37;10.90;99.90
5834;DHT22;2943;48.012;10.968;2023-05-15T07:20:05;10.90;99.90
5834;DHT22;2943;48.012;10.968;2023-05-15T07:22:33;10.90;99.90
5834;DHT22;2943;48.012;10.968;2023-05-15T07:25:00;10.90;99.90
5834;DHT22;2943;48.012;10.968;2023-05-15T07:27:27;10.80;99.90
5834;DHT22;2943;48.012;10.968;2023-05-15T07:29:54;10.90;99.90
5834;DHT22;2943;48.012;10.968;2023-05-15T07:32:20;10.80;99.90
5834;DHT22;2943;48.012;10.968;2023-05-15T07:34:47;10.90;99.90
5834;DHT22;2943;48.012;10.968;2023-05-15T07:37:14;11.00;99.90
5834;DHT22;2943;48.012;10.968;2023-05-15T07:39:42;11.10;99.90
5834;DHT22;2943;48.012;10.968;2023-05-15T07:42:09;11.10;99.90
5834;DHT22;2943;48.012;10.968;2023-05-15T07:44:36;11.10;99.90
5834;DHT22;2943;48.012;10.968;2023-05-15T07:47:02;11.20;99.90
5834;DHT22;2943;48.012;10.968;2023-05-15T07:49:29;11.30;99.90
5834;DHT22;2943;48.012;10.968;2023-05-15T07:51:56;11.30;99.90
5834;DHT22;2943;48.012;10.968;2023-05-15T07:54:23;11.30;99.90
5834;DHT22;2943;48.012;10.968;2023-05-15T07:56:52;11.30;99.90
5834;DHT22;2943;48.012;10.968;2023-05-15T07:59:20;11.30;99.90
5834;DHT22;2943;48.012;10.968;2023-05-15T08:01:47;11.30;99.90
5834;DHT22;2943;48.012;10.968;2023-05-15T08:04:14;11.20;99.90
5834;DHT22;2943;48.012;10.968;2023-05-15T08:06:40;11.20;99.90
5834;DHT22;2943;48.012;10.968;2023-05-15T08:09:08;11.30;99.90
5834;DHT22;2943;48.012;10.968;2023-05-15T08:11:35;11.40;99.90
5834;DHT22;2943;48.012;10.968;2023-05-15T08:14:03;11.40;99.90
5834;DHT22;2943;48.012;10.968;2023-05-15T08:16:30;11.50;99.90
5834;DHT22;2943;48.012;10.968;2023-05-15T08:18:57;11.60;99.90
5834;DHT22;2943;48.012;10.968;2023-05-15T08:21:28;11.60;99.90
5834;DHT22;2943;48.012;10.968;2023-05-15T08:23:55;11.70;99.90
5834;DHT22;2943;48.012;10.968;2023-05-15T08:26:22;11.70;99.90
5834;DHT22;2943;48.012;10.968;2023-05-15T08:28:49;11.80;99.90
5834;DHT22;2943;48.012;10.968;2023-05-15T08:31:17;11.80;99.90
5834;DHT22;2943;48.012;10.968;2023-05-15T08:33:44;11.90;99.90
5834;DHT22;2943;48.012;10.968;2023-05-15T08:36:11;11.90;99.90
5834;DHT22;2943;48.012;10.968;2023-05-15T08:38:38;12.00;99.90
5834;DHT22;2943;48.012;10.968;2023-05-15T08:41:10;12.10;99.90
5834;DHT22;2943;48.012;10.968;2023-05-15T08:43:38;12.20;99.90
5834;DHT22;2943;48.012;10.968;2023-05-15T08:46:06;12.30;99.90
5834;DHT22;2943;48.012;10.968;2023-05-15T08:48:36;12.40;99.90
5834;DHT22;2943;48.012;10.968;2023-05-15T08:51:04;12.50;99.90
5834;DHT22;2943;48.012;10.968;2023-05-15T08:53:34;12.50;99.90
5834;DHT22;2943;48.012;10.968;2023-05-15T08:56:01;12.40;99.90
5834;DHT22;2943;48.012;10.968;2023-05-15T08:58:29;12.40;99.90
5834;DHT22;2943;48.012;10.968;2023-05-15T09:00:56;12.40;99.90
5834;DHT22;2943;48.012;10.968;2023-05-15T09:03:24;12.40;99.90
5834;DHT22;2943;48.012;10.968;2023-05-15T09:05:53;12.50;99.90
5834;DHT22;2943;48.012;10.968;2023-05-15T09:08:22;12.60;99.90
5834;DHT22;2943;48.012;10.968;2023-05-15T09:10:51;12.80;99.90
5834;DHT22;2943;48.012;10.968;2023-05-15T09:13:18;12.90;99.90
5834;DHT22;2943;48.012;10.968;2023-05-15T09:15:45;13.10;99.90
5834;DHT22;2943;48.012;10.968;2023-05-15T09:18:14;13.20;99.90
5834;DHT22;2943;48.012;10.968;2023-05-15T09:20:40;13.20;99.90
5834;DHT22;2943;48.012;10.968;2023-05-15T09:23:22;13.40;99.90
5834;DHT22;2943;48.012;10.968;2023-05-15T09:25:50;13.70;99.90
5834;DHT22;2943;48.012;10.968;2023-05-15T09:28:25;13.80;99.90
5834;DHT22;2943;48.012;10.968;2023-05-15T09:30:57;14.00;99.90
5834;DHT22;2943;48.012;10.968;2023-05-15T09:33:27;14.10;99.90
5834;DHT22;2943;48.012;10.968;2023-05-15T09:35:55;14.30;99.90
5834;DHT22;2943;48.012;10.968;2023-05-15T09:38:23;14.50;99.90
5834;DHT22;2943;48.012;10.968;2023-05-15T09:41:00;14.50;99.90
5834;DHT22;2943;48.012;10.968;2023-05-15T09:43:27;14.50;99.90
5834;DHT22;2943;48.012;10.968;2023-05-15T09:45:54;14.50;99.90
5834;DHT22;2943;48.012;10.968;2023-05-15T09:48:21;14.40;99.90
5834;DHT22;2943;48.012;10.968;2023-05-15T09:50:48;14.30;99.90
5834;DHT22;2943;48.012;10.968;2023-05-15T09:53:15;14.30;99.90
5834;DHT22;2943;48.012;10.968;2023-05-15T09:55:43;14.10;99.90
5834;DHT22;2943;48.012;10.968;2023-05-15T09:58:12;14.00;99.90
5834;DHT22;2943;48.012;10.968;2023-05-15T10:00:40;13.80;99.90
5834;DHT22;2943;48.012;10.968;2023-05-15T10:03:08;13.70;99.90
5834;DHT22;2943;48.012;10.968;2023-05-15T10:05:35;13.50;99.90
5834;DHT22;2943;48.012;10.968;2023-05-15T10:08:02;13.40;99.90
5834;DHT22;2943;48.012;10.968;2023-05-15T10:10:30;13.40;99.90
5834;DHT22;2943;48.012;10.968;2023-05-15T10:12:59;13.40;99.90
5834;DHT22;2943;48.012;10.968;2023-05-15T10:15:29;13.40;99.90
5834;DHT22;2943;48.012;10.968;2023-05-15T10:17:56;13.40;99.90
5834;DHT22;2943;48.012;10.968;2023-05-15T10:20:24;13.50;99.90
5834;DHT22;2943;48.012;10.968;2023-05-15T10:22:53;13.70;99.90
5834;DHT22;2943;48.012;10.968;2023-05-15T10:25:25;13.70;99.90
5834;DHT22;2943;48.012;10.968;2023-05-15T10:27:53;13.80;99.90
5834;DHT22;2943;48.012;10.968;2023-05-15T10:30:22;13.90;99.90
5834;DHT22;2943;48.012;10.968;2023-05-15T10:32:50;14.10;99.90
5834;DHT22;2943;48.012;10.968;2023-05-15T10:35:17;14.40;99.90
5834;DHT22;2943;48.012;10.968;2023-05-15T10:37:45;14.70;99.90
5834;DHT22;2943;48.012;10.968;2023-05-15T10:40:14;15.00;99.90
5834;DHT22;2943;48.012;10.968;2023-05-15T10:42:42;15.20;99.90
5834;DHT22;2943;48.012;10.968;2023-05-15T10:45:10;15.20;99.90
5834;DHT22;2943;48.012;10.968;2023-05-15T10:47:40;15.20;99.90
5834;DHT22;2943;48.012;10.968;2023-05-15T10:50:08;15.20;99.90
5834;DHT22;2943;48.012;10.968;2023-05-15T10:52:36;15.20;99.90
5834;DHT22;2943;48.012;10.968;2023-05-15T10:55:06;15.40;99.90
5834;DHT22;2943;48.012;10.968;2023-05-15T10:57:33;15.60;99.90
5834;DHT22;2943;48.012;10.968;2023-05-15T11:00:00;15.90;99.90
5834;DHT22;2943;48.012;10.968;2023-05-15T11:02:30;16.20;99.90
5834;DHT22;2943;48.012;10.968;2023-05-15T11:05:05;16.30;99.90
5834;DHT22;2943;48.012;10.968;2023-05-15T11:07:32;16.40;99.90
5834;DHT22;2943;48.012;10.968;2023-05-15T11:09:59;16.50;99.90
5834;DHT22;2943;48.012;10.968;2023-05-15T11:12:55;16.60;99.90
5834;DHT22;2943;48.012;10.968;2023-05-15T11:15:23;16.90;99.90
5834;DHT22;2943;48.012;10.968;2023-05-15T11:18:03;17.30;99.90
5834;DHT22;2943;48.012;10.968;2023-05-15T11:20:37;17.80;99.90
5834;DHT22;2943;48.012;10.968;2023-05-15T11:23:05;18.10;99.90
5834;DHT22;2943;48.012;10.968;2023-05-15T11:25:32;18.30;99.90
5834;DHT22;2943;48.012;10.968;2023-05-15T11:28:00;18.70;99.90
5834;DHT22;2943;48.012;10.968;2023-05-15T11:30:35;18.90;99.90
5834;DHT22;2943;48.012;10.968;2023-05-15T11:33:04;18.80;99.90
5834;DHT22;2943;48.012;10.968;2023-05-15T11:35:36;18.40;99.90
5834;DHT22;2943;48.012;10.968;2023-05-15T11:38:06;17.70;99.90
5834;DHT22;2943;48.012;10.968;2023-05-15T11:40:43;16.90;99.90
5834;DHT22;2943;48.012;10.968;2023-05-15T11:43:17;16.10;99.90
5834;DHT22;2943;48.012;10.968;2023-05-15T11:45:46;15.40;99.90
5834;DHT22;2943;48.012;10.968;2023-05-15T11:48:15;14.80;99.90
5834;DHT22;2943;48.012;10.968;2023-05-15T11:50:43;14.30;99.90
5834;DHT22;2943;48.012;10.968;2023-05-15T11:53:11;14.00;99.90
5834;DHT22;2943;48.012;10.968;2023-05-15T11:55:40;13.80;99.90
5834;DHT22;2943;48.012;10.968;2023-05-15T11:58:10;13.60;99.90
5834;DHT22;2943;48.012;10.968;2023-05-15T12:00:38;13.50;99.90
5834;DHT22;2943;48.012;10.968;2023-05-15T12:03:05;13.60;99.90
5834;DHT22;2943;48.012;10.968;2023-05-15T12:05:32;13.60;99.90
5834;DHT22;2943;48.012;10.968;2023-05-15T12:08:00;13.50;99.90
5834;DHT22;2943;48.012;10.968;2023-05-15T12:10:29;13.60;99.90
5834;DHT22;2943;48.012;10.968;2023-05-15T12:12:57;13.60;99.90
5834;DHT22;2943;48.012;10.968;2023-05-15T12:15:25;13.60;99.90
5834;DHT22;2943;48.012;10.968;2023-05-15T12:17:52;13.60;99.90
5834;DHT22;2943;48.012;10.968;2023-05-15T12:20:19;13.70;99.90
5834;DHT22;2943;48.012;10.968;2023-05-15T12:22:46;13.90;99.90
5834;DHT22;2943;48.012;10.968;2023-05-15T12:25:14;14.00;99.90
5834;DHT22;2943;48.012;10.968;2023-05-15T12:27:42;14.10;99.90
5834;DHT22;2943;48.012;10.968;2023-05-15T12:30:11;14.20;99.90
5834;DHT22;2943;48.012;10.968;2023-05-15T12:32:48;14.30;99.90
5834;DHT22;2943;48.012;10.968;2023-05-15T12:35:15;14.50;99.90
5834;DHT22;2943;48.012;10.968;2023-05-15T12:37:42;14.80;99.90
5834;DHT22;2943;48.012;10.968;2023-05-15T12:40:10;15.00;99.90
5834;DHT22;2943;48.012;10.968;2023-05-15T12:42:39;15.30;99.90
5834;DHT22;2943;48.012;10.968;2023-05-15T12:45:12;15.60;99.90
5834;DHT22;2943;48.012;10.968;2023-05-15T12:47:39;15.90;99.90
5834;DHT22;2943;48.012;10.968;2023-05-15T12:50:12;16.30;99.90
5834;DHT22;2943;48.012;10.968;2023-05-15T12:52:39;16.50;99.90
5834;DHT22;2943;48.012;10.968;2023-05-15T12:55:06;16.60;99.90
5834;DHT22;2943;48.012;10.968;2023-05-15T12:57:34;16.80;99.90
5834;DHT22;2943;48.012;10.968;2023-05-15T13:00:02;17.10;99.90
5834;DHT22;2943;48.012;10.968;2023-05-15T13:02:30;17.50;99.90
5834;DHT22;2943;48.012;10.968;2023-05-15T13:04:56;17.80;99.90
5834;DHT22;2943;48.012;10.968;2023-05-15T13:07:23;18.10;99.90
5834;DHT22;2943;48.012;10.968;2023-05-15T13:10:01;18.30;99.90
5834;DHT22;2943;48.012;10.968;2023-05-15T13:12:34;18.40;99.90
5834;DHT22;2943;48.012;10.968;2023-05-15T13:15:03;18.50;99.90
5834;DHT22;2943;48.012;10.968;2023-05-15T13:17:30;18.60;99.90
5834;DHT22;2943;48.012;10.968;2023-05-15T13:19:57;18.70;99.90
5834;DHT22;2943;48.012;10.968;2023-05-15T13:22:24;18.80;99.90
5834;DHT22;2943;48.012;10.968;2023-05-15T13:24:51;18.60;99.90
5834;DHT22;2943;48.012;10.968;2023-05-15T13:27:18;18.30;99.90
5834;DHT22;2943;48.012;10.968;2023-05-15T13:29:45;18.30;99.90
5834;DHT22;2943;48.012;10.968;2023-05-15T13:32:13;18.30;99.90
5834;DHT22;2943;48.012;10.968;2023-05-15T13:34:40;18.30;99.90
5834;DHT22;2943;48.012;10.968;2023-05-15T13:37:07;18.40;99.90
5834;DHT22;2943;48.012;10.968;2023-05-15T13:39:33;18.40;99.90
5834;DHT22;2943;48.012;10.968;2023-05-15T13:42:00;18.50;99.90
5834;DHT22;2943;48.012;10.968;2023-05-15T13:44:27;18.50;99.90
5834;DHT22;2943;48.012;10.968;2023-05-15T13:46:54;18.60;99.90
5834;DHT22;2943;48.012;10.968;2023-05-15T13:49:22;18.70;99.90
5834;DHT22;2943;48.012;10.968;2023-05-15T13:51:49;18.90;99.90
5834;DHT22;2943;48.012;10.968;2023-05-15T13:54:15;19.00;99.90
5834;DHT22;2943;48.012;10.968;2023-05-15T13:56:42;19.00;99.90
5834;DHT22;2943;48.012;10.968;2023-05-15T13:59:09;19.20;99.90
5834;DHT22;2943;48.012;10.968;2023-05-15T14:01:36;19.40;99.90
5834;DHT22;2943;48.012;10.968;2023-05-15T14:04:02;19.20;99.90
5834;DHT22;2943;48.012;10.968;2023-05-15T14:06:30;19.00;99.90
5834;DHT22;2943;48.012;10.968;2023-05-15T14:08:57;18.40;99.90
5834;DHT22;2943;48.012;10.968;2023-05-15T14:11:24;18.00;99.90
5834;DHT22;2943;48.012;10.968;2023-05-15T14:13:51;17.60;99.90
5834;DHT22;2943;48.012;10.968;2023-05-15T14:16:17;17.20;99.90
5834;DHT22;2943;48.012;10.968;2023-05-15T14:18:44;16.80;99.90
5834;DHT22;2943;48.012;10.968;2023-05-15T14:21:11;16.30;99.90
5834;DHT22;2943;48.012;10.968;2023-05-15T14:23:39;15.90;99.90
5834;DHT22;2943;48.012;10.968;2023-05-15T14:26:06;15.50;99.90
5834;DHT22;2943;48.012;10.968;2023-05-15T14:28:33;15.10;99.90
5834;DHT22;2943;48.012;10.968;2023-05-15T14:31:00;14.70;99.90
5834;DHT22;2943;48.012;10.968;2023-05-15T14:33:26;14.20;99.90
5834;DHT22;2943;48.012;10.968;2023-05-15T14:35:53;13.70;99.90
5834;DHT22;2943;48.012;10.968;2023-05-15T14:38:20;13.30;99.90
5834;DHT22;2943;48.012;10.968;2023-05-15T14:40:48;12.90;99.90
5834;DHT22;2943;48.012;10.968;2023-05-15T14:43:15;12.60;99.90
5834;DHT22;2943;48.012;10.968;2023-05-15T14:45:41;12.30;99.90
5834;DHT22;2943;48.012;10.968;2023-05-15T14:48:08;12.10;99.90
5834;DHT22;2943;48.012;10.968;2023-05-15T14:50:36;11.80;99.90
5834;DHT22;2943;48.012;10.968;2023-05-15T14:53:02;11.60;99.90
5834;DHT22;2943;48.012;10.968;2023-05-15T14:55:29;11.50;99.90
5834;DHT22;2943;48.012;10.968;2023-05-15T14:57:58;11.40;99.90
5834;DHT22;2943;48.012;10.968;2023-05-15T15:00:25;11.30;99.90
5834;DHT22;2943;48.012;10.968;2023-05-15T15:02:52;11.40;99.90
5834;DHT22;2943;48.012;10.968;2023-05-15T15:05:19;11.40;99.90
5834;DHT22;2943;48.012;10.968;2023-05-15T15:08:01;11.30;99.90
5834;DHT22;2943;48.012;10.968;2023-05-15T15:10:29;11.30;99.90
5834;DHT22;2943;48.012;10.968;2023-05-15T15:12:58;11.40;99.90
5834;DHT22;2943;48.012;10.968;2023-05-15T15:15:25;11.40;99.90
5834;DHT22;2943;48.012;10.968;2023-05-15T15:17:53;11.50;99.90
5834;DHT22;2943;48.012;10.968;2023-05-15T15:20:20;11.50;99.90
5834;DHT22;2943;48.012;10.968;2023-05-15T15:22:47;11.60;99.90
5834;DHT22;2943;48.012;10.968;2023-05-15T15:25:14;11.60;99.90
5834;DHT22;2943;48.012;10.968;2023-05-15T15:27:41;11.70;99.90
5834;DHT22;2943;48.012;10.968;2023-05-15T15:30:10;11.80;99.90
5834;DHT22;2943;48.012;10.968;2023-05-15T15:32:37;11.80;99.90
5834;DHT22;2943;48.012;10.968;2023-05-15T15:35:05;11.90;99.90
5834;DHT22;2943;48.012;10.968;2023-05-15T15:37:32;11.90;99.90
5834;DHT22;2943;48.012;10.968;2023-05-15T15:40:00;11.90;99.90
5834;DHT22;2943;48.012;10.968;2023-05-15T15:42:27;12.00;99.90
5834;DHT22;2943;48.012;10.968;2023-05-15T15:44:54;11.90;99.90
5834;DHT22;2943;48.012;10.968;2023-05-15T15:47:23;11.90;99.90
5834;DHT22;2943;48.012;10.968;2023-05-15T15:49:50;12.00;99.90
5834;DHT22;2943;48.012;10.968;2023-05-15T15:52:17;12.00;99.90
5834;DHT22;2943;48.012;10.968;2023-05-15T15:54:44;12.00;99.90
5834;DHT22;2943;48.012;10.968;2023-05-15T15:57:12;12.10;99.90